createdAt,value
2023-05-08T00:00:38.841Z,100479.97
2023-05-08T00:03:05.785Z,100478.41
2023-05-08T00:05:32.802Z,100478.08
2023-05-08T00:08:02.689Z,100477.58
2023-05-08T00:10:29.774Z,100478.14
2023-05-08T00:12:56.891Z,100484.47
2023-05-08T00:15:23.891Z,100480.49
2023-05-08T00:17:50.789Z,100484.55
2023-05-08T00:20:17.792Z,100485.25
2023-05-08T00:22:44.748Z,100485.60
2023-05-08T00:25:11.625Z,100486.52
2023-05-08T00:27:38.740Z,100485.34
2023-05-08T00:30:07.616Z,100481.72
2023-05-08T00:32:34.615Z,100485.56
2023-05-08T00:35:01.548Z,100485.41
2023-05-08T00:37:28.486Z,100486.48
2023-05-08T00:39:55.559Z,100487.20
2023-05-08T00:42:22.490Z,100486.18
2023-05-08T00:44:49.756Z,100488.79
2023-05-08T00:47:16.703Z,100485.30
2023-05-08T00:49:43.757Z,100485.83
2023-05-08T00:52:12.243Z,100481.47
2023-05-08T00:54:39.207Z,100485.66
2023-05-08T00:57:07.166Z,100485.83
2023-05-08T00:59:35.273Z,100487.77
2023-05-08T01:02:02.219Z,100488.98
2023-05-08T01:04:29.249Z,100489.52
2023-05-08T01:06:56.085Z,100490.41
2023-05-08T01:09:23.122Z,100493.91
2023-05-08T01:11:57.033Z,100492.16
2023-05-08T01:14:36.243Z,100493.03
2023-05-08T01:17:19.290Z,100495.13
2023-05-08T01:19:58.103Z,100494.11
2023-05-08T01:22:39.625Z,100492.91
2023-05-08T01:25:12.816Z,100495.36
2023-05-08T01:27:56.750Z,100496.77
2023-05-08T01:30:32.710Z,100497.48
2023-05-08T01:33:03.405Z,100502.08
2023-05-08T01:35:52.305Z,100505.79
2023-05-08T01:38:25.444Z,100506.69
2023-05-08T01:41:09.628Z,100508.27
2023-05-08T01:44:02.952Z,100508.64
2023-05-08T01:46:29.891Z,100514.45
2023-05-08T01:49:01.287Z,100516.55
2023-05-08T01:51:29.263Z,100514.28
2023-05-08T01:53:58.062Z,100515.35
2023-05-08T01:56:25.007Z,100515.02
2023-05-08T01:58:53.106Z,100517.29
2023-05-08T02:01:23.204Z,100517.82
2023-05-08T02:03:50.482Z,100519.92
2023-05-08T02:06:20.385Z,100525.68
2023-05-08T02:08:47.444Z,100522.75
2023-05-08T02:11:15.104Z,100522.05
2023-05-08T02:13:42.002Z,100524.49
2023-05-08T02:16:09.345Z,100526.77
2023-05-08T02:18:36.468Z,100526.80
2023-05-08T02:21:04.487Z,100528.20
2023-05-08T02:23:31.514Z,100531.15
2023-05-08T02:25:58.468Z,100538.09
2023-05-08T02:28:25.380Z,100539.66
2023-05-08T02:30:52.457Z,100544.90
2023-05-08T02:33:19.395Z,100544.04
2023-05-08T02:35:47.036Z,100545.41
2023-05-08T02:38:14.029Z,100547.48
2023-05-08T02:40:47.629Z,100548.02
2023-05-08T02:43:14.593Z,100547.86
2023-05-08T02:46:15.282Z,100550.81
2023-05-08T02:49:07.523Z,100552.55
2023-05-08T02:51:37.543Z,100556.94
2023-05-08T02:54:11.170Z,100559.36
2023-05-08T02:56:42.165Z,100558.30
2023-05-08T02:59:17.119Z,100564.95
2023-05-08T03:01:59.319Z,100566.39
2023-05-08T03:04:38.070Z,100569.20
2023-05-08T03:07:04.941Z,100573.38
2023-05-08T03:09:45.705Z,100574.09
2023-05-08T03:12:16.021Z,100580.17
2023-05-08T03:15:07.315Z,100581.56
2023-05-08T03:17:36.118Z,100588.00
2023-05-08T03:20:06.009Z,100590.61
2023-05-08T03:22:33.739Z,100596.17
2023-05-08T03:25:01.552Z,100593.04
2023-05-08T03:27:29.103Z,100595.11
2023-05-08T03:29:56.068Z,100599.28
2023-05-08T03:32:26.663Z,100597.54
2023-05-08T03:34:54.481Z,100599.79
2023-05-08T03:37:21.718Z,100606.06
2023-05-08T03:39:48.876Z,100607.80
2023-05-08T03:42:21.503Z,100610.58
2023-05-08T03:44:52.201Z,100611.95
2023-05-08T03:47:19.455Z,100616.46
2023-05-08T03:49:47.213Z,100620.45
2023-05-08T03:52:14.580Z,100618.34
2023-05-08T03:54:41.800Z,100621.95
2023-05-08T03:57:09.101Z,100624.53
2023-05-08T04:00:04.291Z,100623.77
2023-05-08T04:02:47.662Z,100626.52
2023-05-08T04:05:45.386Z,100627.70
2023-05-08T04:08:34.588Z,100632.36
2023-05-08T04:11:10.289Z,100634.89
2023-05-08T04:13:39.486Z,100636.91
2023-05-08T04:16:10.123Z,100634.05
2023-05-08T04:18:38.818Z,100638.70
2023-05-08T04:21:10.118Z,100638.48
2023-05-08T04:23:37.688Z,100643.12
2023-05-08T04:26:05.665Z,100644.98
2023-05-08T04:28:33.707Z,100643.56
2023-05-08T04:31:00.559Z,100645.09
2023-05-08T04:33:28.228Z,100648.70
2023-05-08T04:35:55.464Z,100646.23
2023-05-08T04:38:22.629Z,100649.32
2023-05-08T04:40:49.667Z,100652.39
2023-05-08T04:43:16.728Z,100652.52
2023-05-08T04:45:43.945Z,100650.55
2023-05-08T04:48:10.932Z,100646.95
2023-05-08T04:50:38.086Z,100649.03
2023-05-08T04:53:05.041Z,100649.47
2023-05-08T04:55:32.063Z,100648.18
2023-05-08T04:57:59.250Z,100645.50
2023-05-08T05:00:26.198Z,100648.63
2023-05-08T05:02:53.316Z,100644.94
2023-05-08T05:05:21.144Z,100650.13
2023-05-08T05:07:48.285Z,100649.03
2023-05-08T05:10:15.972Z,100651.27
2023-05-08T05:12:42.954Z,100653.86
2023-05-08T05:15:10.742Z,100652.98
2023-05-08T05:17:38.162Z,100654.67
2023-05-08T05:20:08.845Z,100652.90
2023-05-08T05:22:35.945Z,100651.58
2023-05-08T05:25:02.906Z,100654.47
2023-05-08T05:27:29.918Z,100652.45
2023-05-08T05:29:57.696Z,100656.52
2023-05-08T05:32:25.383Z,100660.94
2023-05-08T05:34:54.055Z,100658.73
2023-05-08T05:37:22.132Z,100661.41
2023-05-08T05:39:49.081Z,100664.41
2023-05-08T05:42:16.203Z,100664.14
2023-05-08T05:44:43.402Z,100665.17
2023-05-08T05:47:10.879Z,100664.10
2023-05-08T05:49:39.912Z,100663.34
2023-05-08T05:52:07.123Z,100659.31
2023-05-08T05:54:34.277Z,100657.91
2023-05-08T05:57:01.532Z,100663.64
2023-05-08T05:59:28.489Z,100664.11
2023-05-08T06:01:55.642Z,100665.15
2023-05-08T06:04:22.513Z,100663.39
2023-05-08T06:06:49.842Z,100658.66
2023-05-08T06:09:17.210Z,100660.55
2023-05-08T06:11:44.259Z,100656.98
2023-05-08T06:14:11.333Z,100660.30
2023-05-08T06:16:38.675Z,100657.48
2023-05-08T06:19:05.888Z,100655.08
2023-05-08T06:21:33.079Z,100655.36
2023-05-08T06:24:00.035Z,100655.52
2023-05-08T06:26:27.115Z,100653.55
2023-05-08T06:28:53.975Z,100655.03
2023-05-08T06:31:21.058Z,100652.02
2023-05-08T06:33:48.145Z,100646.82
2023-05-08T06:36:15.094Z,100645.13
2023-05-08T06:38:41.986Z,100646.89
2023-05-08T06:41:09.106Z,100647.16
2023-05-08T06:43:36.132Z,100642.95
2023-05-08T06:46:04.007Z,100643.86
2023-05-08T06:48:31.105Z,100645.86
2023-05-08T06:50:58.710Z,100642.58
2023-05-08T06:53:25.940Z,100645.77
2023-05-08T06:55:53.002Z,100645.95
2023-05-08T06:58:19.859Z,100650.11
2023-05-08T07:00:46.806Z,100645.23
2023-05-08T07:03:13.935Z,100648.13
2023-05-08T07:05:41.021Z,100648.96
2023-05-08T07:08:08.031Z,100644.73
2023-05-08T07:10:35.178Z,100642.71
2023-05-08T07:13:02.497Z,100642.52
2023-05-08T07:15:32.101Z,100639.30
2023-05-08T07:17:59.272Z,100639.12
2023-05-08T07:20:26.355Z,100634.14
2023-05-08T07:22:53.329Z,100634.41
2023-05-08T07:25:20.254Z,100633.33
2023-05-08T07:27:47.559Z,100626.83
2023-05-08T07:30:14.984Z,100624.25
2023-05-08T07:32:41.989Z,100628.29
2023-05-08T07:35:11.622Z,100630.44
2023-05-08T07:37:41.690Z,100628.17
2023-05-08T07:40:09.228Z,100628.16
2023-05-08T07:42:42.305Z,100631.29
2023-05-08T07:45:10.491Z,100635.14
2023-05-08T07:47:38.698Z,100633.11
2023-05-08T07:50:06.425Z,100625.08
2023-05-08T07:52:33.632Z,100623.91
2023-05-08T07:55:00.674Z,100631.16
2023-05-08T07:57:27.712Z,100628.80
2023-05-08T07:59:55.374Z,100628.20
2023-05-08T08:02:22.873Z,100633.30
2023-05-08T08:04:49.955Z,100632.76
2023-05-08T08:07:16.872Z,100629.70
2023-05-08T08:09:43.880Z,100631.00
2023-05-08T08:12:11.565Z,100630.02
2023-05-08T08:14:38.520Z,100634.80
2023-05-08T08:17:05.855Z,100633.19
2023-05-08T08:19:32.871Z,100636.36
2023-05-08T08:21:59.885Z,100642.30
2023-05-08T08:24:26.935Z,100641.01
2023-05-08T08:26:53.987Z,100640.29
2023-05-08T08:29:20.876Z,100635.18
2023-05-08T08:31:47.700Z,100636.08
2023-05-08T08:34:14.745Z,100636.95
2023-05-08T08:36:41.717Z,100639.33
2023-05-08T08:39:10.932Z,100638.63
2023-05-08T08:41:42.311Z,100643.27
2023-05-08T08:44:09.303Z,100635.27
2023-05-08T08:46:36.187Z,100634.36
2023-05-08T08:49:04.318Z,100635.16
2023-05-08T08:51:54.509Z,100632.46
2023-05-08T08:54:23.726Z,100627.58
2023-05-08T08:56:51.818Z,100632.38
2023-05-08T08:59:18.848Z,100635.02
2023-05-08T09:01:48.606Z,100629.21
2023-05-08T09:04:16.982Z,100625.06
2023-05-08T09:06:45.533Z,100626.63
2023-05-08T09:09:13.503Z,100625.45
2023-05-08T09:11:41.683Z,100620.98
2023-05-08T09:14:09.788Z,100629.17
2023-05-08T09:16:36.886Z,100630.70
2023-05-08T09:19:04.726Z,100631.83
2023-05-08T09:21:32.363Z,100626.20
2023-05-08T09:24:00.970Z,100625.61
2023-05-08T09:26:39.749Z,100625.42
2023-05-08T09:29:17.425Z,100620.38
2023-05-08T09:31:49.144Z,100624.96
2023-05-08T09:34:27.248Z,100623.80
2023-05-08T09:36:55.097Z,100623.11
2023-05-08T09:39:25.693Z,100622.63
2023-05-08T09:42:00.834Z,100628.11
2023-05-08T09:44:28.125Z,100620.81
2023-05-08T09:47:11.685Z,100622.23
2023-05-08T09:49:40.771Z,100622.67
2023-05-08T09:52:08.615Z,100623.05
2023-05-08T09:54:35.695Z,100622.61
2023-05-08T09:57:12.220Z,100616.30
2023-05-08T09:59:39.056Z,100614.45
2023-05-08T10:02:12.985Z,100617.84
2023-05-08T10:04:40.045Z,100615.36
2023-05-08T10:07:07.334Z,100616.63
2023-05-08T10:09:46.805Z,100611.92
2023-05-08T10:12:17.498Z,100608.91
2023-05-08T10:14:46.773Z,100605.69
2023-05-08T10:17:14.145Z,100604.66
2023-05-08T10:19:41.173Z,100606.27
2023-05-08T10:22:08.167Z,100606.44
2023-05-08T10:24:35.330Z,100610.88
2023-05-08T10:27:09.348Z,100611.30
2023-05-08T10:29:52.553Z,100608.41
2023-05-08T10:32:20.212Z,100609.59
2023-05-08T10:34:50.500Z,100607.27
2023-05-08T10:37:17.518Z,100607.71
2023-05-08T10:39:44.890Z,100605.83
2023-05-08T10:42:13.826Z,100603.09
2023-05-08T10:44:40.926Z,100601.28
2023-05-08T10:47:20.561Z,100598.76
2023-05-08T10:50:12.238Z,100603.36
2023-05-08T10:52:45.240Z,100607.56
2023-05-08T10:55:17.773Z,100606.55
2023-05-08T10:58:05.195Z,100610.49
2023-05-08T11:00:34.207Z,100610.89
2023-05-08T11:03:16.926Z,100612.48
2023-05-08T11:05:51.507Z,100612.27
2023-05-08T11:08:19.820Z,100610.58
2023-05-08T11:10:52.462Z,100618.75
2023-05-08T11:13:19.914Z,100621.14
2023-05-08T11:15:50.928Z,100624.63
2023-05-08T11:18:18.127Z,100621.07
2023-05-08T11:21:05.376Z,100617.27
2023-05-08T11:23:36.684Z,100615.58
2023-05-08T11:26:12.843Z,100616.36
2023-05-08T11:28:57.026Z,100610.17
2023-05-08T11:31:24.315Z,100609.58
2023-05-08T11:33:51.718Z,100603.77
2023-05-08T11:36:23.366Z,100606.56
2023-05-08T11:39:07.786Z,100606.48
2023-05-08T11:41:34.970Z,100605.93
2023-05-08T11:44:05.299Z,100608.32
2023-05-08T11:46:42.289Z,100607.11
2023-05-08T11:49:21.155Z,100609.06
2023-05-08T11:51:55.524Z,100607.84
2023-05-08T11:54:22.677Z,100605.75
2023-05-08T11:56:50.377Z,100604.21
2023-05-08T11:59:17.527Z,100605.25
2023-05-08T12:01:50.881Z,100602.66
2023-05-08T12:04:27.524Z,100601.53
2023-05-08T12:06:57.582Z,100602.03
2023-05-08T12:09:24.661Z,100601.55
2023-05-08T12:11:56.227Z,100598.48
2023-05-08T12:14:23.166Z,100600.36
2023-05-08T12:16:51.361Z,100597.83
2023-05-08T12:19:18.514Z,100601.55
2023-05-08T12:21:49.243Z,100603.80
2023-05-08T12:24:17.232Z,100604.41
2023-05-08T12:26:44.276Z,100603.44
2023-05-08T12:29:11.218Z,100603.95
2023-05-08T12:31:38.130Z,100601.47
2023-05-08T12:34:08.529Z,100594.45
2023-05-08T12:36:36.367Z,100595.41
2023-05-08T12:39:16.701Z,100596.80
2023-05-08T12:41:50.547Z,100597.42
2023-05-08T12:44:25.268Z,100595.92
2023-05-08T12:46:55.994Z,100594.67
2023-05-08T12:49:32.978Z,100595.83
2023-05-08T12:52:13.327Z,100589.95
2023-05-08T12:54:41.618Z,100590.89
2023-05-08T12:57:12.859Z,100585.89
2023-05-08T12:59:41.092Z,100582.98
2023-05-08T13:02:18.582Z,100581.27
2023-05-08T13:04:45.933Z,100571.52
2023-05-08T13:07:13.057Z,100579.99
2023-05-08T13:09:39.988Z,100578.55
2023-05-08T13:12:07.430Z,100587.53
2023-05-08T13:14:34.313Z,100588.09
2023-05-08T13:17:01.773Z,100588.39
2023-05-08T13:19:29.037Z,100586.50
2023-05-08T13:21:55.857Z,100581.75
2023-05-08T13:24:22.833Z,100583.11
2023-05-08T13:26:49.937Z,100584.09
2023-05-08T13:29:17.449Z,100584.70
2023-05-08T13:31:44.322Z,100586.81
2023-05-08T13:34:11.460Z,100587.94
2023-05-08T13:36:38.272Z,100582.01
2023-05-08T13:39:05.076Z,100587.29
2023-05-08T13:41:31.867Z,100583.55
2023-05-08T13:43:58.757Z,100585.01
2023-05-08T13:46:25.767Z,100584.77
2023-05-08T13:48:52.698Z,100589.23
2023-05-08T13:51:19.705Z,100587.42
2023-05-08T13:53:46.662Z,100585.27
2023-05-08T13:56:13.921Z,100582.86
2023-05-08T13:58:41.047Z,100580.55
2023-05-08T14:01:21.737Z,100581.20
2023-05-08T14:03:49.472Z,100582.48
2023-05-08T14:06:16.358Z,100585.21
2023-05-08T14:11:30.620Z,100587.31
2023-05-08T14:12:42.932Z,100588.08
2023-05-08T14:13:58.015Z,100589.15
2023-05-08T14:16:25.086Z,100587.82
2023-05-08T14:18:52.186Z,100589.02
2023-05-08T14:21:19.143Z,100587.84
2023-05-08T14:23:46.093Z,100586.94
2023-05-08T14:26:12.958Z,100589.83
2023-05-08T14:28:39.968Z,100586.30
2023-05-08T14:31:06.989Z,100586.60
2023-05-08T14:33:34.513Z,100587.09
2023-05-08T14:36:01.485Z,100590.98
2023-05-08T14:38:28.525Z,100588.91
2023-05-08T14:40:55.571Z,100595.50
2023-05-08T14:43:22.632Z,100592.67
2023-05-08T14:45:49.819Z,100590.95
2023-05-08T14:48:16.849Z,100589.93
2023-05-08T14:50:43.723Z,100585.55
2023-05-08T14:53:10.717Z,100589.44
2023-05-08T14:55:38.159Z,100587.34
2023-05-08T14:58:05.460Z,100587.38
2023-05-08T15:00:32.515Z,100586.88
2023-05-08T15:02:59.425Z,100586.88
2023-05-08T15:05:26.664Z,100589.11
2023-05-08T15:07:54.305Z,100585.04
2023-05-08T15:10:21.342Z,100584.20
2023-05-08T15:12:48.253Z,100583.09
2023-05-08T15:15:15.356Z,100582.23
2023-05-08T15:17:42.414Z,100588.33
2023-05-08T15:20:10.081Z,100587.95
2023-05-08T15:22:37.424Z,100588.34
2023-05-08T15:25:05.543Z,100589.84
2023-05-08T15:27:32.594Z,100589.73
2023-05-08T15:29:59.606Z,100588.02
2023-05-08T15:32:26.596Z,100589.77
2023-05-08T15:34:53.554Z,100585.58
2023-05-08T15:37:20.574Z,100586.33
2023-05-08T15:39:47.513Z,100588.22
2023-05-08T15:42:14.382Z,100588.05
2023-05-08T15:44:54.484Z,100586.62
2023-05-08T15:47:23.433Z,100584.44
2023-05-08T15:49:51.154Z,100586.43
2023-05-08T15:52:19.984Z,100584.05
2023-05-08T15:54:47.444Z,100585.02
2023-05-08T15:57:14.358Z,100583.18
2023-05-08T15:59:41.445Z,100584.83
2023-05-08T16:02:08.567Z,100583.52
2023-05-08T16:04:36.170Z,100586.09
2023-05-08T16:07:03.228Z,100588.84
2023-05-08T16:09:31.313Z,100589.81
2023-05-08T16:11:58.303Z,100588.87
2023-05-08T16:14:25.304Z,100589.32
2023-05-08T16:16:52.381Z,100587.81
2023-05-08T16:19:19.278Z,100591.45
2023-05-08T16:21:47.896Z,100589.10
2023-05-08T16:24:14.850Z,100593.27
2023-05-08T16:26:41.732Z,100589.36
2023-05-08T16:29:08.667Z,100592.45
2023-05-08T16:31:35.685Z,100592.89
2023-05-08T16:34:02.752Z,100591.58
2023-05-08T16:36:29.631Z,100593.10
2023-05-08T16:38:56.484Z,100596.19
2023-05-08T16:41:24.741Z,100595.09
2023-05-08T16:43:51.720Z,100598.88
2023-05-08T16:46:29.239Z,100604.14
2023-05-08T16:48:57.255Z,100607.83
2023-05-08T16:51:24.818Z,100610.04
2023-05-08T16:53:51.771Z,100609.59
2023-05-08T16:56:18.824Z,100610.04
2023-05-08T16:58:46.001Z,100613.33
2023-05-08T17:01:13.378Z,100616.98
2023-05-08T17:03:43.282Z,100622.20
2023-05-08T17:06:10.414Z,100621.98
2023-05-08T17:08:37.263Z,100625.94
2023-05-08T17:11:04.619Z,100629.73
2023-05-08T17:13:31.746Z,100633.34
2023-05-08T17:15:58.699Z,100640.98
2023-05-08T17:18:25.684Z,100645.45
2023-05-08T17:20:52.742Z,100643.26
2023-05-08T17:23:19.684Z,100647.05
2023-05-08T17:25:46.639Z,100652.42
2023-05-08T17:28:13.583Z,100652.86
2023-05-08T17:30:40.740Z,100655.95
2023-05-08T17:33:07.657Z,100655.16
2023-05-08T17:35:34.775Z,100656.48
2023-05-08T17:38:01.839Z,100660.30
2023-05-08T17:40:29.158Z,100660.05
2023-05-08T17:42:56.429Z,100669.40
2023-05-08T17:45:23.634Z,100671.59
2023-05-08T17:47:50.625Z,100673.75
2023-05-08T17:50:17.491Z,100681.35
2023-05-08T17:52:44.499Z,100681.27
2023-05-08T17:55:11.593Z,100679.45
2023-05-08T17:57:38.588Z,100679.33
2023-05-08T18:00:06.708Z,100686.58
2023-05-08T18:02:35.593Z,100689.13
2023-05-08T18:05:02.564Z,100692.52
2023-05-08T18:07:29.400Z,100698.20
2023-05-08T18:09:56.499Z,100702.67
2023-05-08T18:12:25.972Z,100709.38
2023-05-08T18:14:52.934Z,100708.38
2023-05-08T18:17:21.451Z,100709.85
2023-05-08T18:19:48.688Z,100712.38
2023-05-08T18:22:16.848Z,100712.61
2023-05-08T18:24:46.261Z,100713.87
2023-05-08T18:27:13.514Z,100715.80
2023-05-08T18:29:40.871Z,100711.97
2023-05-08T18:32:07.811Z,100717.73
2023-05-08T18:34:34.983Z,100713.95
2023-05-08T18:37:01.792Z,100717.30
2023-05-08T18:39:28.787Z,100715.27
2023-05-08T18:41:55.650Z,100713.95
2023-05-08T18:44:22.679Z,100715.60
2023-05-08T18:46:49.877Z,100717.60
2023-05-08T18:49:17.202Z,100723.43
2023-05-08T18:51:44.146Z,100724.16
2023-05-08T18:54:10.992Z,100723.16
2023-05-08T18:56:37.966Z,100723.75
2023-05-08T18:59:05.002Z,100728.39
2023-05-08T19:01:34.718Z,100726.38
2023-05-08T19:04:02.940Z,100729.91
2023-05-08T19:06:30.050Z,100733.64
2023-05-08T19:08:57.051Z,100729.52
2023-05-08T19:11:23.930Z,100731.34
2023-05-08T19:13:51.984Z,100732.98
2023-05-08T19:16:19.102Z,100730.05
2023-05-08T19:18:45.941Z,100732.56
2023-05-08T19:21:12.886Z,100731.38
2023-05-08T19:23:39.732Z,100733.53
2023-05-08T19:26:07.006Z,100730.44
2023-05-08T19:28:34.972Z,100730.60
2023-05-08T19:31:01.894Z,100734.83
2023-05-08T19:33:28.710Z,100729.95
2023-05-08T19:35:55.498Z,100729.66
2023-05-08T19:38:22.298Z,100730.73
2023-05-08T19:40:57.132Z,100730.23
2023-05-08T19:43:26.417Z,100728.75
2023-05-08T19:45:53.492Z,100729.17
2023-05-08T19:48:20.567Z,100730.06
2023-05-08T19:50:47.578Z,100729.38
2023-05-08T19:53:14.506Z,100729.91
2023-05-08T19:55:41.914Z,100729.90
2023-05-08T19:58:08.746Z,100729.89
2023-05-08T20:00:35.737Z,100731.64
2023-05-08T20:03:02.893Z,100726.60
2023-05-08T20:05:29.938Z,100730.46
2023-05-08T20:07:56.826Z,100732.07
2023-05-08T20:10:23.983Z,100727.55
2023-05-08T20:12:50.909Z,100732.83
2023-05-08T20:15:17.986Z,100730.75
2023-05-08T20:17:45.190Z,100733.20
2023-05-08T20:20:13.074Z,100733.20
2023-05-08T20:22:40.343Z,100733.04
2023-05-08T20:25:07.527Z,100732.52
2023-05-08T20:27:34.477Z,100734.64
2023-05-08T20:30:01.428Z,100730.45
2023-05-08T20:32:28.414Z,100729.08
2023-05-08T20:34:55.541Z,100731.21
2023-05-08T20:37:22.392Z,100730.22
2023-05-08T20:39:49.341Z,100731.81
2023-05-08T20:42:16.412Z,100731.67
2023-05-08T20:44:43.343Z,100729.77
2023-05-08T20:47:10.295Z,100728.41
2023-05-08T20:49:37.863Z,100728.77
2023-05-08T20:52:05.672Z,100725.12
2023-05-08T20:54:32.597Z,100727.55
2023-05-08T20:56:59.692Z,100728.80
2023-05-08T20:59:26.703Z,100729.83
2023-05-08T21:01:53.640Z,100729.67
2023-05-08T21:04:20.538Z,100731.95
2023-05-08T21:06:47.381Z,100735.31
2023-05-08T21:09:14.388Z,100737.60
2023-05-08T21:11:41.342Z,100733.11
2023-05-08T21:14:08.193Z,100731.92
2023-05-08T21:16:35.033Z,100737.88
2023-05-08T21:19:02.093Z,100735.13
2023-05-08T21:21:28.937Z,100738.98
2023-05-08T21:23:55.996Z,100738.14
2023-05-08T21:26:23.804Z,100740.59
2023-05-08T21:28:52.710Z,100745.16
2023-05-08T21:31:19.970Z,100746.05
2023-05-08T21:33:47.287Z,100740.32
2023-05-08T21:36:14.259Z,100740.35
2023-05-08T21:38:41.471Z,100742.83
2023-05-08T21:41:08.758Z,100743.75
2023-05-08T21:43:36.168Z,100743.77
2023-05-08T21:46:06.655Z,100743.63
2023-05-08T21:48:34.211Z,100741.20
2023-05-08T21:51:01.284Z,100743.66
2023-05-08T21:53:28.314Z,100739.15
2023-05-08T21:55:55.272Z,100738.46
2023-05-08T21:58:22.117Z,100738.48
2023-05-08T22:00:49.042Z,100735.86
2023-05-08T22:03:16.188Z,100734.42
2023-05-08T22:05:43.184Z,100730.73
2023-05-08T22:08:10.226Z,100731.95
2023-05-08T22:10:37.289Z,100731.08
2023-05-08T22:13:04.687Z,100731.45
2023-05-08T22:15:31.868Z,100729.02
2023-05-08T22:17:59.883Z,100728.14
2023-05-08T22:20:26.933Z,100725.91
2023-05-08T22:22:53.954Z,100725.42
2023-05-08T22:25:21.996Z,100725.62
2023-05-08T22:27:49.214Z,100724.95
2023-05-08T22:30:16.288Z,100723.25
2023-05-08T22:32:43.356Z,100723.63
2023-05-08T22:35:10.493Z,100726.98
2023-05-08T22:37:37.525Z,100726.13
2023-05-08T22:40:05.473Z,100726.66
2023-05-08T22:42:32.348Z,100730.17
2023-05-08T22:44:59.168Z,100729.34
2023-05-08T22:47:26.213Z,100731.63
2023-05-08T22:49:53.511Z,100731.64
2023-05-08T22:52:20.565Z,100730.44
2023-05-08T22:54:47.411Z,100729.73
2023-05-08T22:57:14.447Z,100730.80
2023-05-08T22:59:41.276Z,100728.02
2023-05-08T23:02:08.262Z,100727.52
2023-05-08T23:04:35.373Z,100722.13
2023-05-08T23:07:02.594Z,100725.13
2023-05-08T23:09:30.920Z,100724.13
2023-05-08T23:11:58.019Z,100722.40
2023-05-08T23:14:24.866Z,100723.16
2023-05-08T23:16:51.844Z,100725.83
2023-05-08T23:19:18.704Z,100724.63
2023-05-08T23:21:45.714Z,100726.40
2023-05-08T23:24:12.545Z,100725.40
2023-05-08T23:26:41.946Z,100727.70
2023-05-08T23:29:09.240Z,100728.94
2023-05-08T23:31:36.412Z,100726.36
2023-05-08T23:34:03.267Z,100727.95
2023-05-08T23:36:30.285Z,100725.52
2023-05-08T23:38:57.242Z,100724.15
2023-05-08T23:41:24.508Z,100727.98
2023-05-08T23:43:51.466Z,100727.14
2023-05-08T23:46:18.308Z,100726.09
2023-05-08T23:48:45.190Z,100729.41
2023-05-08T23:51:12.305Z,100724.71
2023-05-08T23:53:39.146Z,100725.77
2023-05-08T23:56:06.480Z,100721.92
2023-05-08T23:58:33.577Z,100727.67
